• Join FlightAware (Why Join?)
  • Login
  • US Flag 
01:14PM EDT


 

Airport Tracker/Info


-or-


 

Live Flight TrackerFlight Track Log ✈ ASQ4151 ✈ 17-Apr-2013 ✈ KIAH - KMSY

Flight Track Log - Related Links

Times and Time Zones

All times are in EDT time to prevent confusion due to time zone crossing. See the ASQ4151 flight status page for this flight to view local times or setup timezone preferences in your user account.

Time Position Orientation Groundspeed Altitude Reporting Facility
EDT Latitude Longitude Course Direction KTS MPH feet Rate Location/Type
10:30AM 29.9764 -95.2983 97° East 160 184 900  Level Houston Center
10:32AM 29.9633 -95.2228 101° East 243 280 3,100 1,440 Climbing Houston Center
10:32AM 29.9525 -95.1517 100° East 253 291 4,000 780 Climbing Houston Center
10:33AM 29.9503 -95.1361 99° East 249 287 4,100 1,980 Climbing Houston Center
10:34AM 29.9185 -94.8829 97° East  Level FlightAware Approximate
10:34AM 29.9417 -95.0539 97° East 256 295 6,800  Level Houston Center
10:35AM 29.9086 -94.7694 95° East  Level FlightAware Approximate
10:35AM 29.9319 -94.9647 97° East 274 315 9,200  Level Houston Center
10:36AM 29.8988 -94.6558 97° East  Level FlightAware Approximate
10:36AM 29.9203 -94.8483 97° East 302 348 10,900  Level Houston Center
10:37AM 29.9081 -94.7356 97° East 349 402 12,100 1,260 Climbing Houston Center
10:38AM 29.8944 -94.6192 98° East 363 418 13,600 1,440 Climbing Houston Center
10:39AM 29.8822 -94.5003 97° East 371 427 15,100 1,260 Climbing Houston Center
10:40AM 29.8719 -94.3772 95° East 388 447 16,300 1,260 Climbing Houston Center
10:41AM 29.8828 -94.2494 84° East 403 464 17,800 1,860 Climbing Houston Center
10:42AM 29.8961 -94.0986 84° East 396 456 20,200 2,160 Climbing Houston Center
10:43AM 29.9053 -93.9747 85° East 392 451 22,300 1,320 Climbing Houston Center
10:44AM 29.9156 -93.8497 85° East 395 455 23,000 300 Climbing Houston Center
10:45AM 29.9258 -93.7083 85° East 435 501 23,000  Level Houston Center
10:46AM 29.9378 -93.5472 85° East 457 526 23,000  Level Houston Center
10:47AM 29.9514 -93.4033 84° East 458 527 23,000  Level Houston Center
10:48AM 29.9617 -93.2553 85° East 461 531 23,000  Level Houston Center
10:49AM 29.9758 -93.0769 85° East 470 541 23,000  Level Houston Center
10:50AM 29.9869 -92.9283 85° East 469 540 23,000  Level Houston Center
10:51AM 29.9958 -92.7828 86° East 462 532 23,000  Level Houston Center
10:52AM 30.0078 -92.6347 85° East 464 534 23,000  Level Houston Center
10:54AM 30.0183 -92.4861 85° East 465 535 23,000  Level Houston Center
10:55AM 30.0283 -92.3381 86° East 463 533 23,000  Level Houston Center
10:56AM 30.0408 -92.1603 85° East 465 535 23,000  Level Houston Center
10:57AM 30.0511 -92.0122 85° East 464 534 23,000  Level Houston Center
10:58AM 30.0606 -91.8628 86° East 467 537 23,000  Level Houston Center
10:59AM 30.0703 -91.7081 86° East 465 535 23,000 -720 Level Houston Center
11:00AM 30.0800 -91.5611 86° East 461 531 21,600 -1,920 Descending Houston Center
11:01AM 30.0886 -91.4194 86° East 447 514 19,100 -2,280 Descending Houston Center
11:02AM 30.0964 -91.2883 86° East 422 486 16,900 -2,400 Descending Houston Center
11:02AM 30.1003 -91.2269 86° East 391 450 15,800 -2,340 Descending Houston Center
11:03AM 30.1069 -91.1444 85° East 382 440 14,500 -1,800 Descending Houston Center
11:03AM 30.1094 -91.0800 87° East 344 396 13,500 -1,800 Descending Houston Center
11:04AM 30.1067 -91.0381 94° East 345 397 12,700 -1,920 Descending Houston Center
11:04AM 30.0983 -90.9675 98° East 314 361 11,600 -1,680 Descending Houston Center
11:05AM 30.0950 -90.9378 97° East 320 368 11,000 -1,800 Descending Houston Center
11:05AM 30.0894 -90.8742 96° East 297 342 9,800 -1,800 Descending Houston Center
11:06AM 30.0872 -90.8433 95° East 303 349 9,200 -1,800 Descending Houston Center
11:07AM 30.0808 -90.7806 97° East 289 333 8,000 -1,680 Descending Houston Center
11:07AM 30.0781 -90.7519 96° East 293 337 7,500 -1,500 Descending Houston Center
11:08AM 30.0703 -90.6922 99° East 278 320 6,500 -1,560 Descending Houston Center
11:08AM 30.0675 -90.6525 95° East 274 315 5,900 -1,020 Descending Houston Center
11:08AM 30.0642 -90.6250 98° East 217 250 5,600 -780 Descending Houston Center
11:09AM 30.0611 -90.5886 96° East 231 266 5,100 -900 Descending Houston Center
11:09AM 30.0583 -90.5653 98° East 180 207 4,700 -1,080 Descending Houston Center
11:10AM 30.0564 -90.5278 93° East 205 236 4,000 -1,320 Descending Houston Center
11:10AM 30.0481 -90.5031 111° Southeast 194 223 3,400 -1,080 Descending Houston Center
11:11AM 30.0447 -90.4697 97° East 194 223 2,900 -840 Descending Houston Center
11:11AM 30.0361 -90.4461 113° Southeast 181 208 2,600 -780 Descending Houston Center
11:12AM 30.0308 -90.4178 102° East 182 209 2,100 -840 Descending Houston Center
11:12AM 30.0242 -90.3936 108° East 153 176 1,800 -720 Descending Houston Center
11:13AM 30.0183 -90.3736 109° East 165 190 1,400 -600 Descending Houston Center